Disentis, Switzerland
Current Conditions -  °F | °C
As of 12:50 PM on Monday 22 Dec 2014 (Local Time) from LSZC Reporting Station
Clear Clear  
Wind Chill: 41°   Ceiling: Unl
Heat Index: 41°   Visibility: 6mi
Dew Point: 34°   Wind: 2mph
Humidity: 76%   Direction: NA
Pressure: 30.42"   Gusts: NA
Location:  46.7°N, 8.84°E
Report Text: LSZC 221150Z AUTO VRB02KT 9999 NCD 05/01 Q1030
Loading
Personal Weather Stations






























Interactive Weather Map New forecast layout! Learn more

10-Day Weather Forecast

Advertisements
Track Severe Weather on mobile